Time;durP1;ratioP1;P1;durP2;ratioP2;P2;SDS_P1;SDS_P2;PMS_P1;PMS_P2;Temp;Humidity;BMP_temperature;BMP_pressure;BME280_temperature;BME280_humidity;BME280_pressure;Samples;Min_cycle;Max_cycle;Signal;HPM_P1;HPM_P2
2022/11/20 00:00:43;;;;;;;;;;;;;;;0.91;100.00;100147.47;5588428;31;33914;-70
2022/11/20 00:03:51;;;;;;;;;;;;;;;0.91;100.00;100136.16;5575054;31;34729;-70
2022/11/20 00:06:58;;;;;;;;;;;;;;;0.82;100.00;100127.25;5588745;31;34343;-71
2022/11/20 00:10:07;;;;;;;;;;;;;;;0.85;100.00;100124.41;5588259;31;34237;-70
2022/11/20 00:13:13;;;;;;;;;;;;;;;0.70;100.00;100113.28;5588281;31;34975;-70
2022/11/20 00:16:19;;;;;;;;;;;;;;;0.67;100.00;100102.25;5574794;31;33736;-70
2022/11/20 00:19:26;;;;;;;;;;;;;;;0.66;100.00;100116.25;5588036;31;34271;-70
2022/11/20 00:22:32;;;;;;;;;;;;;;;0.63;100.00;100116.47;5574677;31;34242;-70
2022/11/20 00:25:39;;;;;;;;;;;;;;;0.66;100.00;100114.47;5588867;31;34235;-70
2022/11/20 00:28:55;;;;;;;;;;;;;;;0.73;100.00;100123.50;5590765;31;34279;-70
2022/11/20 00:32:01;;;;;;;;;;;;;;;0.60;100.00;100124.50;5591001;31;34930;-70
2022/11/20 00:35:08;;;;;;;;;;;;;;;0.59;100.00;100121.06;5590922;31;34210;-70
2022/11/20 00:38:18;;;;;;;;;;;;;;;0.59;100.00;100115.00;5576931;31;35201;-70
2022/11/20 00:41:28;;;;;;;;;;;;;;;0.56;100.00;100126.50;5564166;31;34246;-70
2022/11/20 00:44:36;;;;;;;;;;;;;;;0.57;100.00;100151.69;5591005;31;34052;-70
2022/11/20 00:47:46;;;;;;;;;;;;;;;0.62;100.00;100144.34;5590762;31;34803;-70
2022/11/20 00:50:52;;;;;;;;;;;;;;;0.61;100.00;100134.84;5590753;31;34307;-70
2022/11/20 00:54:03;;;;;;;;;;;;;;;0.64;100.00;100131.16;5591252;31;34654;-71
2022/11/20 00:57:09;;;;;;;;;;;;;;;0.63;100.00;100127.72;5590684;31;34908;-70
2022/11/20 01:00:17;;;;;;;;;;;;;;;0.61;100.00;100119.19;5590721;31;34597;-70
2022/11/20 01:03:25;;;;;;;;;;;;;;;0.57;100.00;100122.13;5577528;31;34209;-70
2022/11/20 01:06:36;;;;;;;;;;;;;;;0.56;100.00;100126.50;5577635;31;34316;-70
2022/11/20 01:09:44;;;;;;;;;;;;;;;0.62;100.00;100128.69;5576780;31;35794;-70
2022/11/20 01:16:31;;;;;;;;;;;;;;;0.59;100.00;100122.84;5590730;31;34661;-70
2022/11/20 01:19:37;;;;;;;;;;;;;;;0.58;100.00;100122.00;5590388;31;34859;-70
2022/11/20 01:22:44;;;;;;;;;;;;;;;0.60;100.00;100137.56;5590539;31;34885;-71
2022/11/20 01:25:55;;;;;;;;;;;;;;;0.52;100.00;100126.84;5590610;31;34284;-70
2022/11/20 01:29:03;;;;;;;;;;;;;;;0.72;100.00;100136.69;5590386;31;34384;-70
2022/11/20 01:32:11;;;;;;;;;;;;;;;0.66;100.00;100130.12;5590477;31;34370;-71
2022/11/20 01:35:16;;;;;;;;;;;;;;;0.72;100.00;100121.84;5590497;31;34704;-70
2022/11/20 01:38:24;;;;;;;;;;;;;;;0.65;100.00;100120.62;5590211;31;34927;-69
2022/11/20 01:44:58;;;;;;;;;;;;;;;0.76;100.00;100098.97;5590396;31;34149;-70
2022/11/20 01:48:06;;;;;;;;;;;;;;;0.73;100.00;100101.78;5576970;31;34796;-70
2022/11/20 01:51:16;;;;;;;;;;;;;;;0.72;100.00;100100.12;5590181;31;35031;-70
2022/11/20 01:54:25;;;;;;;;;;;;;;;0.74;100.00;100106.91;5590322;31;34263;-69
2022/11/20 01:57:35;;;;;;;;;;;;;;;0.69;100.00;100103.78;5576799;31;34170;-70
2022/11/20 02:00:41;;;;;;;;;;;;;;;0.75;100.00;100095.50;5590150;31;34586;-69
2022/11/20 02:03:50;;;;;;;;;;;;;;;0.67;100.00;100094.41;5590276;31;34316;-70
2022/11/20 02:07:00;;;;;;;;;;;;;;;0.68;100.00;100091.66;5576736;31;34675;-70
2022/11/20 02:10:09;;;;;;;;;;;;;;;0.69;100.00;100079.44;5590185;31;34239;-70
2022/11/20 02:16:46;;;;;;;;;;;;;;;0.75;100.00;100094.69;5590149;31;33614;-70
2022/11/20 02:19:51;;;;;;;;;;;;;;;0.72;100.00;100098.34;5590059;31;34297;-70
2022/11/20 02:23:02;;;;;;;;;;;;;;;0.73;100.00;100102.59;5589938;31;34518;-69
2022/11/20 02:26:12;;;;;;;;;;;;;;;0.75;100.00;100089.47;5563842;31;34832;-69
2022/11/20 02:29:26;;;;;;;;;;;;;;;0.76;100.00;100097.19;5589892;31;34966;-70
2022/11/20 02:32:32;;;;;;;;;;;;;;;0.85;100.00;100101.72;5575548;31;34288;-70
2022/11/20 02:35:41;;;;;;;;;;;;;;;0.82;100.00;100101.13;5589909;31;34861;-70
2022/11/20 02:38:50;;;;;;;;;;;;;;;0.85;100.00;100080.00;5590259;31;34871;-69
2022/11/20 02:41:57;;;;;;;;;;;;;;;0.80;100.00;100071.66;5589797;31;34788;-69
2022/11/20 02:45:05;;;;;;;;;;;;;;;0.82;100.00;100064.56;5575838;31;35424;-70
2022/11/20 02:48:11;;;;;;;;;;;;;;;0.80;100.00;100075.13;5588977;31;34343;-70
2022/11/20 02:51:19;;;;;;;;;;;;;;;0.90;100.00;100074.44;5589812;31;34391;-69
2022/11/20 02:54:29;;;;;;;;;;;;;;;0.81;100.00;100068.13;5589536;31;35178;-69
2022/11/20 02:57:37;;;;;;;;;;;;;;;0.84;100.00;100070.50;5589614;31;34263;-70
2022/11/20 03:00:45;;;;;;;;;;;;;;;0.79;100.00;100073.44;5589536;31;34241;-70
2022/11/20 03:03:54;;;;;;;;;;;;;;;0.79;100.00;100070.84;5589534;31;34105;-70
2022/11/20 03:07:00;;;;;;;;;;;;;;;0.86;100.00;100063.41;5589568;31;34278;-70
2022/11/20 03:10:09;;;;;;;;;;;;;;;1.01;100.00;100049.19;5589546;31;34894;-70
2022/11/20 03:13:17;;;;;;;;;;;;;;;0.92;100.00;100062.09;5576031;31;34134;-70
2022/11/20 03:16:26;;;;;;;;;;;;;;;0.89;100.00;100063.16;5550284;32;34189;-70
2022/11/20 03:19:35;;;;;;;;;;;;;;;0.88;100.00;100051.88;5550146;32;35003;-70
2022/11/20 03:22:42;;;;;;;;;;;;;;;0.87;100.00;100055.44;5550221;32;34564;-70
2022/11/20 03:25:48;;;;;;;;;;;;;;;0.89;100.00;100065.75;5549398;32;34833;-70
2022/11/20 03:28:56;;;;;;;;;;;;;;;0.88;100.00;100066.72;5550037;32;34292;-70
2022/11/20 03:32:05;;;;;;;;;;;;;;;0.97;100.00;100076.47;5550065;32;34174;-70
2022/11/20 03:35:09;;;;;;;;;;;;;;;1.00;100.00;100091.09;5549872;32;34236;-70
2022/11/20 03:38:18;;;;;;;;;;;;;;;0.98;100.00;100083.34;5549898;32;34609;-70
2022/11/20 03:41:26;;;;;;;;;;;;;;;0.95;100.00;100072.31;5549813;32;34665;-70
2022/11/20 03:44:35;;;;;;;;;;;;;;;0.99;100.00;100068.53;5536854;32;34359;-71
2022/11/20 03:47:41;;;;;;;;;;;;;;;0.98;100.00;100059.84;5550021;32;34886;-70
2022/11/20 03:50:48;;;;;;;;;;;;;;;0.95;100.00;100056.66;5549710;32;34247;-70
2022/11/20 03:53:58;;;;;;;;;;;;;;;0.94;100.00;100055.81;5549907;32;34600;-70
2022/11/20 03:57:03;;;;;;;;;;;;;;;0.96;100.00;100061.75;5549358;32;35045;-70
2022/11/20 04:00:10;;;;;;;;;;;;;;;0.94;100.00;100058.44;5550933;32;34666;-70
2022/11/20 04:03:18;;;;;;;;;;;;;;;0.87;100.00;100054.63;5551416;32;34138;-70
2022/11/20 04:06:33;;;;;;;;;;;;;;;0.86;100.00;100060.78;5551408;32;34683;-70
2022/11/20 04:09:41;;;;;;;;;;;;;;;0.98;100.00;100057.25;5550704;32;34781;-70
2022/11/20 04:12:46;;;;;;;;;;;;;;;1.06;100.00;100054.06;5552561;32;34678;-71
2022/11/20 04:16:01;;;;;;;;;;;;;;;1.00;100.00;100055.34;5586081;31;34389;-70
2022/11/20 04:19:16;;;;;;;;;;;;;;;1.07;100.00;100053.09;5577547;31;34208;-70
2022/11/20 04:22:26;;;;;;;;;;;;;;;0.97;100.00;100047.72;5578042;31;34216;-70
2022/11/20 04:25:31;;;;;;;;;;;;;;;0.99;100.00;100032.78;5591103;31;34292;-70
2022/11/20 04:28:39;;;;;;;;;;;;;;;1.00;100.00;100024.03;5590864;31;35032;-70
2022/11/20 04:31:49;;;;;;;;;;;;;;;1.07;100.00;100024.38;5591017;31;34256;-70
2022/11/20 04:34:58;;;;;;;;;;;;;;;1.09;100.00;100025.09;5590905;31;34905;-70
2022/11/20 04:38:06;;;;;;;;;;;;;;;1.06;100.00;100020.13;5590964;31;34893;-70
2022/11/20 04:41:16;;;;;;;;;;;;;;;1.04;100.00;100024.59;5590834;31;34156;-70
2022/11/20 04:44:23;;;;;;;;;;;;;;;1.02;100.00;100023.87;5590881;31;34964;-70
2022/11/20 04:47:27;;;;;;;;;;;;;;;1.07;100.00;100027.81;5590792;31;34898;-70
2022/11/20 04:50:31;;;;;;;;;;;;;;;1.06;100.00;100034.00;5590655;31;34810;-70
2022/11/20 04:53:39;;;;;;;;;;;;;;;1.02;100.00;100022.09;5590787;31;34242;-70
2022/11/20 04:56:47;;;;;;;;;;;;;;;0.97;100.00;100003.34;5590704;31;34943;-71
2022/11/20 04:59:56;;;;;;;;;;;;;;;0.97;100.00;99998.12;5590711;31;34303;-70
2022/11/20 05:03:02;;;;;;;;;;;;;;;0.97;100.00;100005.16;5590755;31;34199;-70
2022/11/20 05:06:14;;;;;;;;;;;;;;;1.01;100.00;99996.97;5577798;31;34312;-70
2022/11/20 05:09:19;;;;;;;;;;;;;;;1.01;100.00;99998.72;5590624;31;34894;-71
2022/11/20 05:12:27;;;;;;;;;;;;;;;0.99;100.00;99998.00;5590105;31;34972;-71
2022/11/20 05:15:33;;;;;;;;;;;;;;;0.97;100.00;100010.37;5590415;31;34797;-69
2022/11/20 05:18:41;;;;;;;;;;;;;;;0.97;100.00;100020.81;5590526;31;34950;-69
2022/11/20 05:21:50;;;;;;;;;;;;;;;1.08;100.00;100008.59;5590503;31;34317;-70
2022/11/20 05:24:58;;;;;;;;;;;;;;;1.21;100.00;100005.88;5590512;31;34306;-70
2022/11/20 05:28:03;;;;;;;;;;;;;;;1.18;100.00;100008.72;5590374;31;34714;-70
2022/11/20 05:31:12;;;;;;;;;;;;;;;1.21;100.00;99977.16;5590279;31;35085;-70
2022/11/20 05:34:19;;;;;;;;;;;;;;;1.36;100.00;99968.09;5590407;31;34235;-71
2022/11/20 05:37:27;;;;;;;;;;;;;;;1.37;100.00;99974.16;5590368;31;34829;-70
2022/11/20 05:40:33;;;;;;;;;;;;;;;1.41;100.00;99965.97;5590681;31;34351;-70
2022/11/20 05:43:42;;;;;;;;;;;;;;;1.38;100.00;99966.22;5590334;31;34882;-70
2022/11/20 05:46:50;;;;;;;;;;;;;;;1.49;100.00;99978.44;5590332;31;35080;-69
2022/11/20 05:49:57;;;;;;;;;;;;;;;1.50;100.00;99977.50;5590175;31;34198;-70
2022/11/20 05:53:05;;;;;;;;;;;;;;;1.34;100.00;99993.53;5577077;31;34631;-70
2022/11/20 05:56:13;;;;;;;;;;;;;;;1.35;100.00;99992.59;5590035;31;34292;-70
2022/11/20 05:59:21;;;;;;;;;;;;;;;1.30;100.00;99999.94;5590194;31;34204;-70
2022/11/20 06:02:28;;;;;;;;;;;;;;;1.18;100.00;100006.09;5589823;31;34354;-70
2022/11/20 06:05:35;;;;;;;;;;;;;;;1.19;100.00;100010.37;5576629;31;34949;-71
2022/11/20 06:08:42;;;;;;;;;;;;;;;1.18;100.00;100001.72;5590086;31;34289;-70
2022/11/20 06:11:49;;;;;;;;;;;;;;;1.25;100.00;100010.75;5590047;31;34889;-70
2022/11/20 06:14:58;;;;;;;;;;;;;;;1.28;100.00;100009.69;5589859;31;34383;-70
2022/11/20 06:18:07;;;;;;;;;;;;;;;1.26;100.00;100014.19;5589895;31;34789;-70
2022/11/20 06:21:16;;;;;;;;;;;;;;;1.41;100.00;100015.62;5589708;31;34256;-69
2022/11/20 06:24:26;;;;;;;;;;;;;;;1.43;100.00;99995.44;5588869;31;34361;-70
2022/11/20 06:27:33;;;;;;;;;;;;;;;1.44;100.00;99988.44;5589947;31;34221;-70
2022/11/20 06:30:45;;;;;;;;;;;;;;;1.41;100.00;99988.66;5575820;31;34626;-70
2022/11/20 06:33:51;;;;;;;;;;;;;;;1.45;100.00;100011.84;5576350;31;34715;-70
2022/11/20 06:36:59;;;;;;;;;;;;;;;1.55;100.00;100009.34;5575936;31;34276;-70
2022/11/20 06:40:05;;;;;;;;;;;;;;;1.52;100.00;100025.25;5576022;31;35461;-69
2022/11/20 06:43:10;;;;;;;;;;;;;;;1.59;100.00;100027.28;5589572;31;34219;-70
2022/11/20 06:46:18;;;;;;;;;;;;;;;1.45;100.00;100039.75;5589617;31;34714;-70
2022/11/20 06:49:26;;;;;;;;;;;;;;;1.51;100.00;100053.16;5589634;31;34283;-71
2022/11/20 06:52:32;;;;;;;;;;;;;;;1.52;100.00;100047.00;5589451;31;34932;-70
2022/11/20 06:55:45;;;;;;;;;;;;;;;1.69;100.00;100053.53;5589543;31;34125;-70
2022/11/20 06:58:51;;;;;;;;;;;;;;;1.80;100.00;100043.06;5589518;31;34917;-70
2022/11/20 07:01:59;;;;;;;;;;;;;;;1.84;100.00;100041.06;5589291;31;34221;-70
2022/11/20 07:05:07;;;;;;;;;;;;;;;1.92;100.00;100033.44;5589302;31;34575;-70
2022/11/20 07:08:14;;;;;;;;;;;;;;;1.84;100.00;100026.16;5589783;31;34941;-70
2022/11/20 07:11:19;;;;;;;;;;;;;;;1.96;100.00;100025.22;5589440;31;34221;-70
2022/11/20 07:14:27;;;;;;;;;;;;;;;2.00;100.00;100025.78;5589148;31;34294;-70
2022/11/20 07:17:36;;;;;;;;;;;;;;;1.95;100.00;100026.16;5589208;31;34723;-70
2022/11/20 07:20:46;;;;;;;;;;;;;;;1.92;100.00;100026.41;5589230;31;34637;-70
2022/11/20 07:23:54;;;;;;;;;;;;;;;2.04;100.00;100038.50;5588987;31;34925;-70
2022/11/20 07:27:05;;;;;;;;;;;;;;;2.17;100.00;100056.69;5589347;31;34330;-70
2022/11/20 07:30:11;;;;;;;;;;;;;;;2.01;100.00;100058.84;5588984;31;34207;-71
2022/11/20 07:33:17;;;;;;;;;;;;;;;2.08;100.00;100057.44;5588796;31;34809;-70
2022/11/20 07:36:24;;;;;;;;;;;;;;;2.15;100.00;100062.03;5576368;31;34749;-71
2022/11/20 07:39:30;;;;;;;;;;;;;;;2.03;100.00;100063.00;5591600;31;34963;-73
2022/11/20 07:42:36;;;;;;;;;;;;;;;1.97;100.00;100057.44;5564599;31;34343;-73
2022/11/20 07:45:45;;;;;;;;;;;;;;;1.85;100.00;100061.84;5591298;31;34922;-74
2022/11/20 07:48:53;;;;;;;;;;;;;;;1.82;100.00;100059.47;5591329;31;34937;-73
2022/11/20 07:52:02;;;;;;;;;;;;;;;2.01;100.00;100058.84;5591239;31;34903;-73
2022/11/20 07:55:11;;;;;;;;;;;;;;;2.01;100.00;100067.53;5577982;31;34028;-73
2022/11/20 07:58:19;;;;;;;;;;;;;;;2.08;100.00;100065.28;5591563;31;34710;-73
2022/11/20 08:01:26;;;;;;;;;;;;;;;2.15;100.00;100072.50;5577806;31;34917;-72
2022/11/20 08:04:33;;;;;;;;;;;;;;;2.15;100.00;100067.28;5591061;31;34316;-73
2022/11/20 08:07:40;;;;;;;;;;;;;;;2.28;100.00;100059.25;5590961;31;34603;-73
2022/11/20 08:10:48;;;;;;;;;;;;;;;2.56;100.00;100047.41;5591054;31;34429;-73
2022/11/20 08:14:12;;;;;;;;;;;;;;;2.30;100.00;100044.28;5590920;31;34534;-72
2022/11/20 08:17:20;;;;;;;;;;;;;;;2.40;100.00;100039.12;5591114;31;34988;-74
2022/11/20 08:20:26;;;;;;;;;;;;;;;2.69;100.00;100044.63;5577111;31;35016;-73
2022/11/20 08:23:33;;;;;;;;;;;;;;;2.74;100.00;100048.53;5576422;31;34368;-73
2022/11/20 08:26:39;;;;;;;;;;;;;;;2.75;100.00;100049.38;5564461;31;36243;-73
2022/11/20 08:29:49;;;;;;;;;;;;;;;2.82;100.00;100047.88;5576993;31;34763;-72
2022/11/20 08:33:01;;;;;;;;;;;;;;;2.90;100.00;100033.22;5577042;31;35830;-73
2022/11/20 08:36:07;;;;;;;;;;;;;;;3.01;100.00;100037.53;5591129;31;34940;-73
2022/11/20 08:39:13;;;;;;;;;;;;;;;3.27;100.00;100032.75;5590966;31;34385;-73
2022/11/20 08:42:20;;;;;;;;;;;;;;;3.15;100.00;100034.59;5590911;31;35001;-72
2022/11/20 08:45:26;;;;;;;;;;;;;;;2.94;100.00;100045.09;5590524;31;34781;-73
2022/11/20 08:48:38;;;;;;;;;;;;;;;3.25;100.00;100059.06;5576302;31;36437;-73
2022/11/20 08:51:51;;;;;;;;;;;;;;;3.41;100.00;100067.31;5590765;31;34396;-72
2022/11/20 08:54:58;;;;;;;;;;;;;;;3.49;100.00;100064.88;5576694;31;32777;-72
2022/11/20 08:58:08;;;;;;;;;;;;;;;3.42;100.00;100055.03;5590557;31;34496;-72
2022/11/20 09:01:16;;;;;;;;;;;;;;;3.23;100.00;100055.78;5590622;31;34892;-72
2022/11/20 09:04:22;;;;;;;;;;;;;;;3.14;100.00;100060.94;5590495;31;34469;-72
2022/11/20 09:07:33;;;;;;;;;;;;;;;3.41;100.00;100056.00;5590618;31;34841;-73
2022/11/20 09:10:41;;;;;;;;;;;;;;;3.54;100.00;100067.09;5590629;31;35095;-73
2022/11/20 09:13:50;;;;;;;;;;;;;;;3.58;100.00;100079.00;5590246;31;34860;-73
2022/11/20 09:16:56;;;;;;;;;;;;;;;3.43;100.00;100068.03;5590502;31;34499;-73
2022/11/20 09:20:03;;;;;;;;;;;;;;;3.47;100.00;100081.72;5576435;31;35198;-73
2022/11/20 09:23:10;;;;;;;;;;;;;;;3.27;100.00;100086.00;5590279;31;34253;-73
2022/11/20 09:26:19;;;;;;;;;;;;;;;3.35;100.00;100082.72;5576248;31;35375;-73
2022/11/20 09:29:26;;;;;;;;;;;;;;;3.37;100.00;100081.66;5576145;31;34121;-72
2022/11/20 09:32:31;;;;;;;;;;;;;;;3.39;100.00;100082.34;5590123;31;34213;-72
2022/11/20 09:35:38;;;;;;;;;;;;;;;3.46;100.00;100080.03;5590163;31;34213;-72
2022/11/20 09:38:49;;;;;;;;;;;;;;;3.58;100.00;100075.56;5590140;31;34310;-72
2022/11/20 09:41:59;;;;;;;;;;;;;;;3.61;100.00;100070.87;5575839;31;33871;-72
2022/11/20 09:45:15;;;;;;;;;;;;;;;3.47;100.00;100064.19;5576096;31;34907;-72
2022/11/20 09:48:42;;;;;;;;;;;;;;;3.62;100.00;100063.84;5590096;31;34420;-73
2022/11/20 09:51:50;;;;;;;;;;;;;;;3.86;100.00;100062.56;5590196;31;34963;-72
2022/11/20 09:54:56;;;;;;;;;;;;;;;3.98;100.00;100051.94;5590137;31;34537;-73
2022/11/20 09:57:59;;;;;;;;;;;;;;;4.02;100.00;100059.41;5575862;31;34436;-72
2022/11/20 10:01:13;;;;;;;;;;;;;;;3.96;100.00;100056.50;5590136;31;34786;-71
2022/11/20 10:04:19;;;;;;;;;;;;;;;4.26;100.00;100048.56;5590005;31;34300;-71
2022/11/20 10:07:44;;;;;;;;;;;;;;;4.35;100.00;100047.75;5589816;31;34823;-73
2022/11/20 10:11:01;;;;;;;;;;;;;;;4.52;100.00;100041.81;5589472;31;34247;-71
2022/11/20 10:14:24;;;;;;;;;;;;;;;4.67;100.00;100040.44;5589531;31;34594;-73
2022/11/20 10:17:48;;;;;;;;;;;;;;;4.89;100.00;100031.44;5576305;31;34272;-72
2022/11/20 10:21:01;;;;;;;;;;;;;;;5.09;100.00;100024.34;5589768;31;34905;-72
2022/11/20 10:24:10;;;;;;;;;;;;;;;4.99;100.00;100018.28;5589734;31;34784;-73
2022/11/20 10:27:22;;;;;;;;;;;;;;;5.22;100.00;100011.75;5576394;31;34307;-72
2022/11/20 10:30:30;;;;;;;;;;;;;;;5.19;100.00;99997.06;5576141;31;34184;-72
2022/11/20 10:33:43;;;;;;;;;;;;;;;5.15;100.00;99994.88;5576202;31;34278;-72
2022/11/20 10:37:21;;;;;;;;;;;;;;;5.23;100.00;100000.22;5578868;31;34905;-72
2022/11/20 10:40:31;;;;;;;;;;;;;;;5.30;100.00;100003.13;5589776;31;34290;-72
2022/11/20 10:43:40;;;;;;;;;;;;;;;5.44;100.00;100002.66;5589623;31;34632;-72
2022/11/20 10:46:47;;;;;;;;;;;;;;;5.42;100.00;100000.16;5575964;31;35030;-72
2022/11/20 10:49:55;;;;;;;;;;;;;;;5.37;100.00;99993.72;5576116;31;34226;-71
2022/11/20 10:53:05;;;;;;;;;;;;;;;5.29;100.00;100001.47;5575500;31;34318;-71
2022/11/20 10:56:15;;;;;;;;;;;;;;;5.46;100.00;100000.72;5575847;31;35817;-71
2022/11/20 10:59:27;;;;;;;;;;;;;;;5.35;100.00;100003.53;5576093;31;34273;-71
2022/11/20 11:02:33;;;;;;;;;;;;;;;5.45;100.00;100007.78;5575647;31;34892;-70
2022/11/20 11:05:37;;;;;;;;;;;;;;;5.48;100.00;100012.75;5589368;31;34525;-72
2022/11/20 11:08:40;;;;;;;;;;;;;;;5.55;100.00;100005.12;5574916;31;35713;-72
2022/11/20 11:11:46;;;;;;;;;;;;;;;5.83;100.00;100027.84;5589347;31;34686;-72
2022/11/20 11:14:51;;;;;;;;;;;;;;;5.71;100.00;100029.03;5589141;31;34344;-72
2022/11/20 11:17:57;;;;;;;;;;;;;;;5.96;100.00;100028.34;5562593;31;35182;-71
2022/11/20 11:21:03;;;;;;;;;;;;;;;6.18;99.08;100031.56;5588847;31;34932;-72
2022/11/20 11:24:18;;;;;;;;;;;;;;;6.19;98.29;100025.34;5574709;31;34512;-71
2022/11/20 11:27:50;;;;;;;;;;;;;;;6.14;97.52;100023.16;5575039;31;34263;-72
2022/11/20 11:30:55;;;;;;;;;;;;;;;6.12;99.34;100027.72;5589076;31;33958;-71
2022/11/20 11:34:06;;;;;;;;;;;;;;;6.40;95.91;100034.59;5575721;31;34298;-71
2022/11/20 11:37:15;;;;;;;;;;;;;;;6.20;98.75;100032.22;5588915;31;34304;-71
2022/11/20 11:40:19;;;;;;;;;;;;;;;6.24;97.92;100020.44;5588651;31;34931;-72
2022/11/20 11:46:58;;;;;;;;;;;;;;;6.30;96.03;100011.94;5588435;31;34259;-69
2022/11/20 11:50:09;;;;;;;;;;;;;;;6.21;96.50;100013.66;5575204;31;35201;-71
2022/11/20 11:53:23;;;;;;;;;;;;;;;6.17;99.34;100007.03;5588910;31;34643;-71
2022/11/20 11:56:28;;;;;;;;;;;;;;;6.03;98.98;100005.75;5588580;31;34904;-72
2022/11/20 11:59:43;;;;;;;;;;;;;;;5.77;99.68;99994.22;5574759;31;34312;-71
2022/11/20 12:02:56;;;;;;;;;;;;;;;5.83;100.00;99983.09;5588448;31;34607;-72
2022/11/20 12:06:11;;;;;;;;;;;;;;;5.75;100.00;99979.56;5562141;31;34537;-72
2022/11/20 12:09:18;;;;;;;;;;;;;;;5.85;100.00;99986.44;5574448;31;34890;-71
2022/11/20 12:12:29;;;;;;;;;;;;;;;5.89;100.00;99998.34;5574918;31;33846;-71
2022/11/20 12:15:35;;;;;;;;;;;;;;;5.92;100.00;99995.41;5573748;31;33031;-71
2022/11/20 12:18:43;;;;;;;;;;;;;;;5.98;100.00;99996.62;5588268;31;34201;-71
2022/11/20 12:21:50;;;;;;;;;;;;;;;5.54;100.00;99991.13;5588806;31;34733;-71
2022/11/20 12:25:07;;;;;;;;;;;;;;;5.56;100.00;99991.84;5590938;31;34734;-71
2022/11/20 12:28:23;;;;;;;;;;;;;;;5.82;100.00;99991.13;5590915;31;34247;-71
2022/11/20 12:31:50;;;;;;;;;;;;;;;5.73;100.00;99984.94;5591245;31;34262;-71
2022/11/20 12:35:05;;;;;;;;;;;;;;;5.85;100.00;99988.22;5590878;31;34583;-71
2022/11/20 12:38:33;;;;;;;;;;;;;;;5.74;100.00;99976.09;5577907;31;34365;-71
2022/11/20 12:45:28;;;;;;;;;;;;;;;5.40;100.00;99973.19;5590699;31;34913;-71
2022/11/20 12:48:39;;;;;;;;;;;;;;;5.48;100.00;99975.91;5577477;31;34298;-70
2022/11/20 12:52:03;;;;;;;;;;;;;;;5.36;100.00;99984.16;5564847;31;34478;-70
2022/11/20 12:55:21;;;;;;;;;;;;;;;5.13;100.00;99989.75;5590790;31;34529;-70
2022/11/20 12:58:43;;;;;;;;;;;;;;;5.03;100.00;99985.50;5590841;31;34415;-70
2022/11/20 13:01:56;;;;;;;;;;;;;;;5.05;100.00;99980.91;5590710;31;34153;-70
2022/11/20 13:05:18;;;;;;;;;;;;;;;5.26;100.00;99994.72;5590641;31;34585;-71
2022/11/20 13:08:27;;;;;;;;;;;;;;;5.30;100.00;99992.59;5576590;31;34652;-70
2022/11/20 13:11:34;;;;;;;;;;;;;;;5.42;100.00;99988.84;5590584;31;34899;-71
2022/11/20 13:14:46;;;;;;;;;;;;;;;5.50;100.00;99991.56;5569512;32;35675;-71
2022/11/20 13:17:54;;;;;;;;;;;;;;;5.57;100.00;100004.00;5570178;32;34824;-71
2022/11/20 13:21:15;;;;;;;;;;;;;;;5.52;100.00;99994.88;5570858;32;34794;-71
2022/11/20 13:24:26;;;;;;;;;;;;;;;5.70;100.00;99993.16;5570769;32;35089;-71
2022/11/20 13:27:30;;;;;;;;;;;;;;;5.62;100.00;99993.84;5570765;32;34475;-71
2022/11/20 13:30:53;;;;;;;;;;;;;;;5.68;100.00;99993.28;5570706;32;34862;-71
2022/11/20 13:33:58;;;;;;;;;;;;;;;5.78;100.00;99982.72;5556985;32;34081;-70
2022/11/20 13:37:03;;;;;;;;;;;;;;;5.69;100.00;99973.91;5557082;32;33142;-71
2022/11/20 13:40:10;;;;;;;;;;;;;;;5.50;100.00;99976.63;5570941;32;34235;-71
2022/11/20 13:43:38;;;;;;;;;;;;;;;5.50;100.00;99976.63;5570768;32;34256;-71
2022/11/20 13:46:44;;;;;;;;;;;;;;;5.47;100.00;99963.72;5570600;32;34420;-71
2022/11/20 13:49:48;;;;;;;;;;;;;;;5.33;100.00;99956.31;5570480;32;34724;-71
2022/11/20 13:53:12;;;;;;;;;;;;;;;5.20;100.00;99955.81;5569752;32;33147;-70
2022/11/20 13:56:24;;;;;;;;;;;;;;;5.39;100.00;99953.13;5570372;32;34330;-71
2022/11/20 13:59:37;;;;;;;;;;;;;;;5.38;100.00;99950.63;5569748;32;35103;-70
2022/11/20 14:03:02;;;;;;;;;;;;;;;5.33;100.00;99943.16;5556925;32;34593;-70
2022/11/20 14:06:14;;;;;;;;;;;;;;;5.24;100.00;99941.41;5570442;32;34594;-71
2022/11/20 14:09:28;;;;;;;;;;;;;;;5.20;100.00;99945.31;5569331;32;35273;-71
2022/11/20 14:12:33;;;;;;;;;;;;;;;5.07;100.00;99948.25;5570413;32;34949;-69
2022/11/20 14:15:40;;;;;;;;;;;;;;;5.10;100.00;99941.88;5569048;32;33098;-72
2022/11/20 14:18:49;;;;;;;;;;;;;;;5.02;100.00;99945.25;5569439;32;35062;-70
2022/11/20 14:22:18;;;;;;;;;;;;;;;4.92;100.00;99948.84;5569300;32;35166;-70
2022/11/20 14:25:30;;;;;;;;;;;;;;;4.90;100.00;99945.53;5568954;32;33430;-70
2022/11/20 14:28:40;;;;;;;;;;;;;;;4.82;100.00;99947.09;5568767;31;34626;-71
2022/11/20 14:31:51;;;;;;;;;;;;;;;4.88;100.00;99950.13;5569958;32;34916;-72
2022/11/20 14:35:02;;;;;;;;;;;;;;;5.03;100.00;99956.59;5570014;32;34255;-72
2022/11/20 14:38:12;;;;;;;;;;;;;;;4.85;100.00;99947.75;5570205;32;35048;-72
2022/11/20 14:41:24;;;;;;;;;;;;;;;4.86;100.00;99966.00;5569744;32;34391;-72
2022/11/20 14:44:34;;;;;;;;;;;;;;;4.68;100.00;99967.72;5568521;32;34867;-72
2022/11/20 14:47:42;;;;;;;;;;;;;;;4.78;100.00;99977.25;5569975;32;34297;-71
2022/11/20 14:50:48;;;;;;;;;;;;;;;4.67;100.00;99977.38;5570100;32;34254;-72
2022/11/20 14:53:54;;;;;;;;;;;;;;;4.71;100.00;99980.56;5569974;32;34434;-71
2022/11/20 14:57:04;;;;;;;;;;;;;;;4.64;100.00;99977.69;5569961;32;34949;-71
2022/11/20 15:00:11;;;;;;;;;;;;;;;4.51;100.00;99969.22;5569208;32;34314;-71
2022/11/20 15:03:18;;;;;;;;;;;;;;;4.40;100.00;99987.78;5568616;32;35874;-71
2022/11/20 15:06:27;;;;;;;;;;;;;;;4.35;100.00;99976.84;5569059;32;34280;-71
2022/11/20 15:09:33;;;;;;;;;;;;;;;4.31;100.00;99985.94;5569034;32;34294;-71
2022/11/20 15:12:47;;;;;;;;;;;;;;;4.29;100.00;99996.62;5568566;32;34331;-71
2022/11/20 15:15:54;;;;;;;;;;;;;;;4.26;100.00;99990.81;5568729;32;34840;-71
2022/11/20 15:19:02;;;;;;;;;;;;;;;4.08;100.00;99998.50;5569458;32;34860;-71
2022/11/20 15:22:12;;;;;;;;;;;;;;;4.05;100.00;99987.47;5568735;32;34923;-71
2022/11/20 15:25:18;;;;;;;;;;;;;;;4.09;100.00;99986.22;5569458;32;34643;-71
2022/11/20 15:28:32;;;;;;;;;;;;;;;3.97;100.00;99990.75;5569481;32;34154;-71
2022/11/20 15:31:41;;;;;;;;;;;;;;;3.98;100.00;99987.16;5568675;32;34255;-71
2022/11/20 15:34:49;;;;;;;;;;;;;;;3.97;100.00;99992.56;5569287;32;35086;-71
2022/11/20 15:37:55;;;;;;;;;;;;;;;3.94;100.00;99996.28;5569281;32;34835;-71
2022/11/20 15:41:02;;;;;;;;;;;;;;;3.92;100.00;99993.78;5569067;32;34802;-71
2022/11/20 15:44:09;;;;;;;;;;;;;;;3.92;100.00;99995.59;5568224;32;34346;-71
2022/11/20 15:47:16;;;;;;;;;;;;;;;4.07;100.00;99999.47;5555492;32;35145;-70
2022/11/20 15:50:22;;;;;;;;;;;;;;;4.00;100.00;100001.00;5569044;32;34352;-72
2022/11/20 15:53:26;;;;;;;;;;;;;;;3.96;100.00;100011.91;5568188;32;35249;-71
2022/11/20 15:56:32;;;;;;;;;;;;;;;3.90;100.00;100006.22;5570120;32;34274;-72
2022/11/20 15:59:40;;;;;;;;;;;;;;;3.92;100.00;99996.41;5571384;32;34288;-72
2022/11/20 16:02:47;;;;;;;;;;;;;;;3.82;100.00;99997.38;5571452;32;34756;-71
2022/11/20 16:05:51;;;;;;;;;;;;;;;3.79;100.00;99992.38;5571207;32;34652;-70
2022/11/20 16:08:57;;;;;;;;;;;;;;;3.81;100.00;99995.69;5570645;32;35121;-71
2022/11/20 16:12:05;;;;;;;;;;;;;;;3.66;100.00;99994.41;5570188;32;34342;-71
2022/11/20 16:18:33;;;;;;;;;;;;;;;3.70;100.00;100001.03;5590946;31;34651;-70
2022/11/20 16:21:41;;;;;;;;;;;;;;;3.53;100.00;99989.41;5591361;31;34233;-70
2022/11/20 16:24:48;;;;;;;;;;;;;;;3.45;100.00;99987.44;5577240;31;34754;-70
2022/11/20 16:27:55;;;;;;;;;;;;;;;3.47;100.00;99987.31;5590894;31;34557;-70
2022/11/20 16:31:12;;;;;;;;;;;;;;;3.56;100.00;99983.88;5590722;31;34293;-70
2022/11/20 16:34:18;;;;;;;;;;;;;;;3.60;100.00;99989.69;5590900;31;34885;-70
2022/11/20 16:37:26;;;;;;;;;;;;;;;3.60;100.00;99990.50;5590665;31;34386;-70